sensor_id;sensor_type;location;lat;lon;timestamp;pressure;altitude;pressure_sealevel;temperature;humidity
79463;BME280;68931;47.286;18.756;2024-01-30T00:00:27;103038.88;;;-3.64;90.58
79463;BME280;68931;47.286;18.756;2024-01-30T00:00:59;103011.03;;;-3.76;90.96
79463;BME280;68931;47.286;18.756;2024-01-30T00:01:31;103028.47;;;-3.67;90.50
79463;BME280;68931;47.286;18.756;2024-01-30T00:02:03;103017.16;;;-3.72;90.62
79463;BME280;68931;47.286;18.756;2024-01-30T00:02:35;103030.22;;;-3.66;90.55
79463;BME280;68931;47.286;18.756;2024-01-30T00:03:07;103020.59;;;-3.72;89.92
79463;BME280;68931;47.286;18.756;2024-01-30T00:03:39;103032.00;;;-3.65;89.41
79463;BME280;68931;47.286;18.756;2024-01-30T00:04:11;103027.72;;;-3.65;90.21
79463;BME280;68931;47.286;18.756;2024-01-30T00:04:45;103014.66;;;-3.71;90.07
79463;BME280;68931;47.286;18.756;2024-01-30T00:05:17;103028.47;;;-3.67;89.66
79463;BME280;68931;47.286;18.756;2024-01-30T00:05:49;102989.25;;;-3.86;89.93
79463;BME280;68931;47.286;18.756;2024-01-30T00:06:21;103020.78;;;-3.67;90.21
79463;BME280;68931;47.286;18.756;2024-01-30T00:06:54;103014.53;;;-3.74;89.50
79463;BME280;68931;47.286;18.756;2024-01-30T00:07:26;103002.34;;;-3.80;90.24
79463;BME280;68931;47.286;18.756;2024-01-30T00:07:58;103025.91;;;-3.67;90.30
79463;BME280;68931;47.286;18.756;2024-01-30T00:08:30;103030.22;;;-3.66;89.53
79463;BME280;68931;47.286;18.756;2024-01-30T00:09:02;103012.59;;;-3.80;89.89
79463;BME280;68931;47.286;18.756;2024-01-30T00:09:34;103013.78;;;-3.71;89.95
79463;BME280;68931;47.286;18.756;2024-01-30T00:10:06;103016.28;;;-3.73;90.45
79463;BME280;68931;47.286;18.756;2024-01-30T00:10:38;103022.44;;;-3.69;90.39
79463;BME280;68931;47.286;18.756;2024-01-30T00:11:10;103021.50;;;-3.71;90.15
79463;BME280;68931;47.286;18.756;2024-01-30T00:11:42;103017.16;;;-3.72;90.11
79463;BME280;68931;47.286;18.756;2024-01-30T00:12:14;103026.41;;;-3.76;89.95
79463;BME280;68931;47.286;18.756;2024-01-30T00:12:46;103008.28;;;-3.81;90.63
79463;BME280;68931;47.286;18.756;2024-01-30T00:13:18;103006.47;;;-3.83;89.98
79463;BME280;68931;47.286;18.756;2024-01-30T00:13:52;102997.50;;;-3.93;89.99
79463;BME280;68931;47.286;18.756;2024-01-30T00:14:24;103023.78;;;-3.78;90.10
79463;BME280;68931;47.286;18.756;2024-01-30T00:14:59;103019.66;;;-3.74;90.01
79463;BME280;68931;47.286;18.756;2024-01-30T00:15:31;103019.50;;;-3.78;89.64
79463;BME280;68931;47.286;18.756;2024-01-30T00:16:03;103025.59;;;-3.75;89.53
79463;BME280;68931;47.286;18.756;2024-01-30T00:16:38;103003.75;;;-3.86;89.91
79463;BME280;68931;47.286;18.756;2024-01-30T00:17:10;103013.19;;;-3.85;89.23
79463;BME280;68931;47.286;18.756;2024-01-30T00:17:42;103012.31;;;-3.86;89.50
79463;BME280;68931;47.286;18.756;2024-01-30T00:18:14;103004.38;;;-3.92;89.27
79463;BME280;68931;47.286;18.756;2024-01-30T00:18:46;103010.56;;;-3.87;89.50
79463;BME280;68931;47.286;18.756;2024-01-30T00:19:18;103021.97;;;-3.80;89.81
79463;BME280;68931;47.286;18.756;2024-01-30T00:19:50;103007.97;;;-3.88;89.40
79463;BME280;68931;47.286;18.756;2024-01-30T00:20:22;103029.78;;;-3.77;89.22
79463;BME280;68931;47.286;18.756;2024-01-30T00:20:54;103034.72;;;-3.82;89.04
79463;BME280;68931;47.286;18.756;2024-01-30T00:21:26;103007.59;;;-3.97;89.80
79463;BME280;68931;47.286;18.756;2024-01-30T00:21:58;103032.09;;;-3.83;89.58
79463;BME280;68931;47.286;18.756;2024-01-30T00:22:33;103023.34;;;-3.88;89.10
79463;BME280;68931;47.286;18.756;2024-01-30T00:23:05;103029.47;;;-3.85;89.16
79463;BME280;68931;47.286;18.756;2024-01-30T00:23:37;103032.16;;;-3.82;89.39
79463;BME280;68931;47.286;18.756;2024-01-30T00:24:09;103021.66;;;-3.88;89.36
79463;BME280;68931;47.286;18.756;2024-01-30T00:24:41;103018.81;;;-3.94;89.03
79463;BME280;68931;47.286;18.756;2024-01-30T00:25:13;103018.16;;;-3.90;89.79
79463;BME280;68931;47.286;18.756;2024-01-30T00:25:45;103033.78;;;-3.84;90.33
79463;BME280;68931;47.286;18.756;2024-01-30T00:26:17;102996.16;;;-4.04;90.22
79463;BME280;68931;47.286;18.756;2024-01-30T00:26:49;103017.13;;;-3.93;89.76
79463;BME280;68931;47.286;18.756;2024-01-30T00:27:21;103031.97;;;-3.86;89.70
79463;BME280;68931;47.286;18.756;2024-01-30T00:27:53;103026.66;;;-3.91;89.54
79463;BME280;68931;47.286;18.756;2024-01-30T00:28:25;103035.38;;;-3.87;90.08
79463;BME280;68931;47.286;18.756;2024-01-30T00:28:57;103042.22;;;-3.86;89.72
79463;BME280;68931;47.286;18.756;2024-01-30T00:29:29;103033.63;;;-3.87;89.75
79463;BME280;68931;47.286;18.756;2024-01-30T00:30:05;103038.78;;;-3.87;89.99
79463;BME280;68931;47.286;18.756;2024-01-30T00:30:38;103046.53;;;-3.85;89.63
79463;BME280;68931;47.286;18.756;2024-01-30T00:31:10;103032.72;;;-3.89;89.08
79463;BME280;68931;47.286;18.756;2024-01-30T00:31:45;103023.84;;;-3.97;89.18
79463;BME280;68931;47.286;18.756;2024-01-30T00:32:20;103043.72;;;-3.91;89.26
79463;BME280;68931;47.286;18.756;2024-01-30T00:32:53;103038.53;;;-3.93;89.16
79463;BME280;68931;47.286;18.756;2024-01-30T00:33:25;103016.81;;;-4.01;89.33
79463;BME280;68931;47.286;18.756;2024-01-30T00:33:58;103037.56;;;-3.95;89.58
79463;BME280;68931;47.286;18.756;2024-01-30T00:34:30;103027.22;;;-3.98;89.46
79463;BME280;68931;47.286;18.756;2024-01-30T00:35:02;103014.88;;;-4.06;89.79
79463;BME280;68931;47.286;18.756;2024-01-30T00:35:36;103043.88;;;-3.88;89.63
79463;BME280;68931;47.286;18.756;2024-01-30T00:36:09;103031.56;;;-3.95;89.36
79463;BME280;68931;47.286;18.756;2024-01-30T00:36:41;103031.63;;;-3.94;89.87
79463;BME280;68931;47.286;18.756;2024-01-30T00:37:13;103027.13;;;-3.99;89.82
79463;BME280;68931;47.286;18.756;2024-01-30T00:37:45;103030.91;;;-3.91;89.81
79463;BME280;68931;47.286;18.756;2024-01-30T00:38:17;103046.53;;;-3.85;89.61
79463;BME280;68931;47.286;18.756;2024-01-30T00:38:49;103043.91;;;-3.87;89.47
79463;BME280;68931;47.286;18.756;2024-01-30T00:39:21;103042.09;;;-3.89;90.20
79463;BME280;68931;47.286;18.756;2024-01-30T00:39:53;102997.41;;;-4.15;89.76
79463;BME280;68931;47.286;18.756;2024-01-30T00:40:25;103033.22;;;-3.97;90.08
79463;BME280;68931;47.286;18.756;2024-01-30T00:40:58;103047.34;;;-3.86;89.79
79463;BME280;68931;47.286;18.756;2024-01-30T00:41:30;103043.97;;;-3.85;90.14
79463;BME280;68931;47.286;18.756;2024-01-30T00:42:02;103050.94;;;-3.83;89.60
79463;BME280;68931;47.286;18.756;2024-01-30T00:42:34;103041.97;;;-3.92;89.80
79463;BME280;68931;47.286;18.756;2024-01-30T00:43:05;103034.19;;;-3.94;89.99
79463;BME280;68931;47.286;18.756;2024-01-30T00:43:37;103024.56;;;-3.99;90.35
79463;BME280;68931;47.286;18.756;2024-01-30T00:44:09;103050.78;;;-3.86;89.98
79463;BME280;68931;47.286;18.756;2024-01-30T00:44:41;103053.16;;;-3.90;90.69
79463;BME280;68931;47.286;18.756;2024-01-30T00:45:17;103035.78;;;-3.97;91.00
79463;BME280;68931;47.286;18.756;2024-01-30T00:45:49;103050.59;;;-3.90;90.82
79463;BME280;68931;47.286;18.756;2024-01-30T00:46:23;103033.22;;;-3.97;91.51
79463;BME280;68931;47.286;18.756;2024-01-30T00:46:58;103051.56;;;-3.88;91.69
79463;BME280;68931;47.286;18.756;2024-01-30T00:47:30;103041.22;;;-3.90;91.55
79463;BME280;68931;47.286;18.756;2024-01-30T00:48:02;103051.47;;;-3.90;91.87
79463;BME280;68931;47.286;18.756;2024-01-30T00:48:37;103039.22;;;-3.97;91.91
79463;BME280;68931;47.286;18.756;2024-01-30T00:49:09;103034.69;;;-4.02;91.60
79463;BME280;68931;47.286;18.756;2024-01-30T00:49:41;103039.75;;;-4.04;91.56
79463;BME280;68931;47.286;18.756;2024-01-30T00:50:13;103044.44;;;-3.94;91.04
79463;BME280;68931;47.286;18.756;2024-01-30T00:50:45;103043.56;;;-3.94;90.98
79463;BME280;68931;47.286;18.756;2024-01-30T00:51:17;103029.63;;;-4.01;91.89
79463;BME280;68931;47.286;18.756;2024-01-30T00:51:51;103049.88;;;-3.88;91.67
79463;BME280;68931;47.286;18.756;2024-01-30T00:52:23;103045.41;;;-3.92;91.56
79463;BME280;68931;47.286;18.756;2024-01-30T00:52:55;103048.63;;;-3.96;91.32
79463;BME280;68931;47.286;18.756;2024-01-30T00:53:27;103036.66;;;-3.97;91.66
79463;BME280;68931;47.286;18.756;2024-01-30T00:53:59;103048.09;;;-3.89;91.03
79463;BME280;68931;47.286;18.756;2024-01-30T00:54:31;102994.56;;;-4.21;91.33
79463;BME280;68931;47.286;18.756;2024-01-30T00:55:03;103019.88;;;-4.09;91.33
79463;BME280;68931;47.286;18.756;2024-01-30T00:55:35;103053.03;;;-3.93;90.92
79463;BME280;68931;47.286;18.756;2024-01-30T00:56:07;103047.66;;;-3.99;91.20
79463;BME280;68931;47.286;18.756;2024-01-30T00:56:39;103025.00;;;-4.09;90.79
79463;BME280;68931;47.286;18.756;2024-01-30T00:57:11;103037.31;;;-4.01;90.58
79463;BME280;68931;47.286;18.756;2024-01-30T00:57:43;103026.66;;;-4.10;91.02
79463;BME280;68931;47.286;18.756;2024-01-30T00:58:16;103049.59;;;-3.94;90.45
79463;BME280;68931;47.286;18.756;2024-01-30T00:58:48;103039.16;;;-3.98;90.77
79463;BME280;68931;47.286;18.756;2024-01-30T00:59:20;103035.72;;;-3.99;91.18
79463;BME280;68931;47.286;18.756;2024-01-30T00:59:55;103028.97;;;-3.97;90.95
79463;BME280;68931;47.286;18.756;2024-01-30T01:00:27;103025.25;;;-4.03;90.95
79463;BME280;68931;47.286;18.756;2024-01-30T01:01:00;103040.13;;;-3.95;90.58
79463;BME280;68931;47.286;18.756;2024-01-30T01:01:32;103040.34;;;-3.90;90.42
79463;BME280;68931;47.286;18.756;2024-01-30T01:02:05;103033.25;;;-3.96;90.28
79463;BME280;68931;47.286;18.756;2024-01-30T01:02:36;103024.56;;;-3.99;90.76
79463;BME280;68931;47.286;18.756;2024-01-30T01:03:08;103030.50;;;-4.00;89.98
79463;BME280;68931;47.286;18.756;2024-01-30T01:03:40;103038.38;;;-3.96;90.42
79463;BME280;68931;47.286;18.756;2024-01-30T01:04:15;103025.31;;;-4.02;90.03
79463;BME280;68931;47.286;18.756;2024-01-30T01:04:50;103041.72;;;-3.98;90.15
79463;BME280;68931;47.286;18.756;2024-01-30T01:05:22;103036.50;;;-4.00;90.45
79463;BME280;68931;47.286;18.756;2024-01-30T01:05:54;103011.44;;;-4.07;90.31
79463;BME280;68931;47.286;18.756;2024-01-30T01:06:26;103024.38;;;-4.04;89.85
79463;BME280;68931;47.286;18.756;2024-01-30T01:06:58;103034.09;;;-3.97;90.51
79463;BME280;68931;47.286;18.756;2024-01-30T01:07:30;103028.03;;;-3.99;89.77
79463;BME280;68931;47.286;18.756;2024-01-30T01:08:03;103037.47;;;-3.98;89.96
79463;BME280;68931;47.286;18.756;2024-01-30T01:08:35;103038.44;;;-3.94;89.51
79463;BME280;68931;47.286;18.756;2024-01-30T01:09:07;103019.31;;;-4.02;89.76
79463;BME280;68931;47.286;18.756;2024-01-30T01:09:39;103031.38;;;-4.00;89.77
79463;BME280;68931;47.286;18.756;2024-01-30T01:10:11;103039.22;;;-3.97;89.50
79463;BME280;68931;47.286;18.756;2024-01-30T01:10:45;103039.97;;;-3.99;89.78
79463;BME280;68931;47.286;18.756;2024-01-30T01:11:17;103023.44;;;-4.06;89.38
79463;BME280;68931;47.286;18.756;2024-01-30T01:11:49;103024.44;;;-4.02;89.60
79463;BME280;68931;47.286;18.756;2024-01-30T01:12:21;103029.69;;;-3.99;90.11
79463;BME280;68931;47.286;18.756;2024-01-30T01:12:53;103025.19;;;-4.05;90.09
79463;BME280;68931;47.286;18.756;2024-01-30T01:13:25;103036.44;;;-4.01;90.22
79463;BME280;68931;47.286;18.756;2024-01-30T01:13:56;103026.00;;;-4.06;90.19
79463;BME280;68931;47.286;18.756;2024-01-30T01:14:29;103033.81;;;-4.03;89.51
79463;BME280;68931;47.286;18.756;2024-01-30T01:15:01;103031.31;;;-4.01;90.45
79463;BME280;68931;47.286;18.756;2024-01-30T01:15:34;103031.38;;;-4.00;90.36
79463;BME280;68931;47.286;18.756;2024-01-30T01:16:06;103029.63;;;-4.01;90.28
79463;BME280;68931;47.286;18.756;2024-01-30T01:16:38;103027.06;;;-4.01;89.91
79463;BME280;68931;47.286;18.756;2024-01-30T01:17:10;103021.75;;;-4.05;90.28
79463;BME280;68931;47.286;18.756;2024-01-30T01:17:42;103012.19;;;-4.09;90.30
79463;BME280;68931;47.286;18.756;2024-01-30T01:18:14;103023.69;;;-4.00;90.27
79463;BME280;68931;47.286;18.756;2024-01-30T01:18:46;103034.69;;;-4.02;90.16
79463;BME280;68931;47.286;18.756;2024-01-30T01:19:18;103021.41;;;-4.13;90.44
79463;BME280;68931;47.286;18.756;2024-01-30T01:19:50;103024.81;;;-4.14;89.78
79463;BME280;68931;47.286;18.756;2024-01-30T01:20:22;103035.97;;;-4.12;90.22
79463;BME280;68931;47.286;18.756;2024-01-30T01:20:54;103005.53;;;-4.25;89.90
79463;BME280;68931;47.286;18.756;2024-01-30T01:21:26;103033.69;;;-4.06;90.87
79463;BME280;68931;47.286;18.756;2024-01-30T01:21:58;103006.66;;;-4.19;90.35
79463;BME280;68931;47.286;18.756;2024-01-30T01:22:31;103016.41;;;-4.10;89.78
79463;BME280;68931;47.286;18.756;2024-01-30T01:23:03;103027.81;;;-4.03;89.81
79463;BME280;68931;47.286;18.756;2024-01-30T01:23:35;103024.19;;;-4.08;89.85
79463;BME280;68931;47.286;18.756;2024-01-30T01:24:07;103020.06;;;-4.05;90.20
79463;BME280;68931;47.286;18.756;2024-01-30T01:24:39;103022.75;;;-4.02;89.91
79463;BME280;68931;47.286;18.756;2024-01-30T01:25:11;103019.31;;;-4.02;90.21
79463;BME280;68931;47.286;18.756;2024-01-30T01:25:43;103025.31;;;-4.02;89.78
79463;BME280;68931;47.286;18.756;2024-01-30T01:26:15;103022.69;;;-4.03;89.70
79463;BME280;68931;47.286;18.756;2024-01-30T01:26:47;103002.66;;;-4.12;89.86
79463;BME280;68931;47.286;18.756;2024-01-30T01:27:19;103017.56;;;-4.03;90.32
79463;BME280;68931;47.286;18.756;2024-01-30T01:27:51;103028.91;;;-3.98;90.04
79463;BME280;68931;47.286;18.756;2024-01-30T01:28:27;103029.84;;;-3.96;90.33
79463;BME280;68931;47.286;18.756;2024-01-30T01:28:59;103022.81;;;-4.00;89.87
79463;BME280;68931;47.286;18.756;2024-01-30T01:29:31;102995.75;;;-4.14;90.37
79463;BME280;68931;47.286;18.756;2024-01-30T01:30:03;103011.44;;;-4.07;91.17
79463;BME280;68931;47.286;18.756;2024-01-30T01:30:37;103025.31;;;-4.02;91.24
79463;BME280;68931;47.286;18.756;2024-01-30T01:31:09;102996.72;;;-4.11;91.36
79463;BME280;68931;47.286;18.756;2024-01-30T01:31:44;103021.22;;;-3.98;90.96
79463;BME280;68931;47.286;18.756;2024-01-30T01:32:17;103008.94;;;-4.05;90.88
79463;BME280;68931;47.286;18.756;2024-01-30T01:32:50;103010.41;;;-4.10;90.97
79463;BME280;68931;47.286;18.756;2024-01-30T01:33:26;103016.00;;;-4.00;91.06
79463;BME280;68931;47.286;18.756;2024-01-30T01:33:58;103009.94;;;-4.02;90.81
79463;BME280;68931;47.286;18.756;2024-01-30T01:34:30;102992.38;;;-4.13;90.95
79463;BME280;68931;47.286;18.756;2024-01-30T01:35:02;102997.41;;;-4.15;91.43
79463;BME280;68931;47.286;18.756;2024-01-30T01:35:37;103013.19;;;-4.06;91.54
79463;BME280;68931;47.286;18.756;2024-01-30T01:36:09;103005.63;;;-4.03;91.65
79463;BME280;68931;47.286;18.756;2024-01-30T01:36:41;102996.78;;;-4.09;91.65
79463;BME280;68931;47.286;18.756;2024-01-30T01:37:13;103005.50;;;-4.06;91.59
79463;BME280;68931;47.286;18.756;2024-01-30T01:37:44;102998.63;;;-4.07;91.96
79463;BME280;68931;47.286;18.756;2024-01-30T01:38:16;103011.81;;;-3.98;92.27
79463;BME280;68931;47.286;18.756;2024-01-30T01:38:48;103016.16;;;-3.97;92.15
79463;BME280;68931;47.286;18.756;2024-01-30T01:39:21;103015.06;;;-4.02;90.94
79463;BME280;68931;47.286;18.756;2024-01-30T01:39:54;102987.16;;;-4.15;91.83
79463;BME280;68931;47.286;18.756;2024-01-30T01:40:26;103003.81;;;-4.05;91.54
79463;BME280;68931;47.286;18.756;2024-01-30T01:40:58;103008.31;;;-4.00;91.55
79463;BME280;68931;47.286;18.756;2024-01-30T01:41:33;103001.25;;;-4.05;91.41
79463;BME280;68931;47.286;18.756;2024-01-30T01:42:05;103006.56;;;-4.01;91.63
79463;BME280;68931;47.286;18.756;2024-01-30T01:42:37;103008.38;;;-3.98;92.09
79463;BME280;68931;47.286;18.756;2024-01-30T01:43:09;102995.50;;;-4.00;91.97
79463;BME280;68931;47.286;18.756;2024-01-30T01:43:41;103003.25;;;-3.98;92.25
79463;BME280;68931;47.286;18.756;2024-01-30T01:44:13;103006.88;;;-3.93;92.66
79463;BME280;68931;47.286;18.756;2024-01-30T01:44:45;102992.72;;;-4.04;92.23
79463;BME280;68931;47.286;18.756;2024-01-30T01:45:18;102963.81;;;-4.21;92.91
79463;BME280;68931;47.286;18.756;2024-01-30T01:45:50;103001.44;;;-4.01;93.23
79463;BME280;68931;47.286;18.756;2024-01-30T01:46:22;102989.31;;;-4.05;92.81
79463;BME280;68931;47.286;18.756;2024-01-30T01:46:55;102970.63;;;-4.22;92.89
79463;BME280;68931;47.286;18.756;2024-01-30T01:47:28;103006.63;;;-3.99;93.04
79463;BME280;68931;47.286;18.756;2024-01-30T01:48:01;103007.44;;;-4.00;92.40
79463;BME280;68931;47.286;18.756;2024-01-30T01:48:33;102991.91;;;-4.03;93.02
79463;BME280;68931;47.286;18.756;2024-01-30T01:49:05;103010.19;;;-3.96;92.59
79463;BME280;68931;47.286;18.756;2024-01-30T01:49:39;102992.63;;;-4.07;92.13
79463;BME280;68931;47.286;18.756;2024-01-30T01:50:11;103007.44;;;-4.00;92.43
79463;BME280;68931;47.286;18.756;2024-01-30T01:50:43;103005.03;;;-3.97;92.09
79463;BME280;68931;47.286;18.756;2024-01-30T01:51:16;102997.84;;;-4.04;93.16
79463;BME280;68931;47.286;18.756;2024-01-30T01:51:49;102986.41;;;-4.12;92.10
79463;BME280;68931;47.286;18.756;2024-01-30T01:52:22;102998.69;;;-4.05;91.93
79463;BME280;68931;47.286;18.756;2024-01-30T01:52:55;103015.28;;;-3.97;91.50
79463;BME280;68931;47.286;18.756;2024-01-30T01:53:28;102992.47;;;-4.10;92.03
79463;BME280;68931;47.286;18.756;2024-01-30T01:54:03;102993.28;;;-4.11;91.63
79463;BME280;68931;47.286;18.756;2024-01-30T01:54:35;103006.56;;;-4.01;92.07
79463;BME280;68931;47.286;18.756;2024-01-30T01:55:08;103000.31;;;-4.07;90.98
79463;BME280;68931;47.286;18.756;2024-01-30T01:55:40;103000.31;;;-4.07;91.26
79463;BME280;68931;47.286;18.756;2024-01-30T01:56:12;103003.69;;;-4.08;91.33
79463;BME280;68931;47.286;18.756;2024-01-30T01:56:44;102995.91;;;-4.10;91.18
79463;BME280;68931;47.286;18.756;2024-01-30T01:57:17;102996.78;;;-4.09;91.14
79463;BME280;68931;47.286;18.756;2024-01-30T01:57:49;102992.56;;;-4.09;90.90
79463;BME280;68931;47.286;18.756;2024-01-30T01:58:22;103004.75;;;-4.03;90.72
79463;BME280;68931;47.286;18.756;2024-01-30T01:58:55;103003.75;;;-4.07;90.32
79463;BME280;68931;47.286;18.756;2024-01-30T01:59:31;102993.44;;;-4.08;90.82
79463;BME280;68931;47.286;18.756;2024-01-30T02:00:04;103007.44;;;-4.00;90.36
79463;BME280;68931;47.286;18.756;2024-01-30T02:00:36;103006.41;;;-4.04;90.82
79463;BME280;68931;47.286;18.756;2024-01-30T02:01:13;102995.25;;;-4.06;90.99
79463;BME280;68931;47.286;18.756;2024-01-30T02:01:46;102974.22;;;-4.18;90.43
79463;BME280;68931;47.286;18.756;2024-01-30T02:02:23;103006.41;;;-4.04;90.73
79463;BME280;68931;47.286;18.756;2024-01-30T02:03:00;103005.81;;;-3.98;90.38
79463;BME280;68931;47.286;18.756;2024-01-30T02:03:33;103006.50;;;-4.02;90.90
79463;BME280;68931;47.286;18.756;2024-01-30T02:04:07;102998.47;;;-4.10;90.70
79463;BME280;68931;47.286;18.756;2024-01-30T02:04:39;103000.25;;;-4.09;90.73
79463;BME280;68931;47.286;18.756;2024-01-30T02:05:11;103002.94;;;-4.06;91.17
79463;BME280;68931;47.286;18.756;2024-01-30T02:05:43;102988.84;;;-4.15;90.53
79463;BME280;68931;47.286;18.756;2024-01-30T02:06:18;102982.63;;;-4.21;90.11
79463;BME280;68931;47.286;18.756;2024-01-30T02:06:51;102994.78;;;-4.17;90.08
79463;BME280;68931;47.286;18.756;2024-01-30T02:07:24;102999.78;;;-4.20;90.06
79463;BME280;68931;47.286;18.756;2024-01-30T02:07:56;102993.66;;;-4.23;90.68
79463;BME280;68931;47.286;18.756;2024-01-30T02:08:28;103002.53;;;-4.15;90.25
79463;BME280;68931;47.286;18.756;2024-01-30T02:09:00;102981.66;;;-4.24;90.29
79463;BME280;68931;47.286;18.756;2024-01-30T02:09:32;102977.25;;;-4.27;90.50
79463;BME280;68931;47.286;18.756;2024-01-30T02:10:04;102967.69;;;-4.31;89.97
79463;BME280;68931;47.286;18.756;2024-01-30T02:10:36;103001.59;;;-4.17;89.90
79463;BME280;68931;47.286;18.756;2024-01-30T02:11:09;102998.78;;;-4.23;90.21
79463;BME280;68931;47.286;18.756;2024-01-30T02:11:44;103004.72;;;-4.24;90.14
79463;BME280;68931;47.286;18.756;2024-01-30T02:12:16;103003.03;;;-4.24;90.69
79463;BME280;68931;47.286;18.756;2024-01-30T02:12:48;102993.38;;;-4.29;90.75
79463;BME280;68931;47.286;18.756;2024-01-30T02:13:21;102994.25;;;-4.29;90.31
79463;BME280;68931;47.286;18.756;2024-01-30T02:13:53;102989.91;;;-4.31;91.26
79463;BME280;68931;47.286;18.756;2024-01-30T02:14:28;103003.91;;;-4.23;90.97
79463;BME280;68931;47.286;18.756;2024-01-30T02:15:01;102990.16;;;-4.25;91.01
79463;BME280;68931;47.286;18.756;2024-01-30T02:15:33;102986.63;;;-4.27;90.44
79463;BME280;68931;47.286;18.756;2024-01-30T02:16:05;102997.94;;;-4.22;90.66
79463;BME280;68931;47.286;18.756;2024-01-30T02:16:37;102980.50;;;-4.31;90.04
79463;BME280;68931;47.286;18.756;2024-01-30T02:17:09;102998.97;;;-4.19;90.35
79463;BME280;68931;47.286;18.756;2024-01-30T02:17:41;102989.34;;;-4.24;90.20
79463;BME280;68931;47.286;18.756;2024-01-30T02:18:13;102991.03;;;-4.25;90.32
79463;BME280;68931;47.286;18.756;2024-01-30T02:18:45;102999.66;;;-4.23;90.57
79463;BME280;68931;47.286;18.756;2024-01-30T02:19:19;103000.47;;;-4.24;90.59
79463;BME280;68931;47.286;18.756;2024-01-30T02:19:52;102991.63;;;-4.30;90.58
79463;BME280;68931;47.286;18.756;2024-01-30T02:20:29;102996.81;;;-4.29;90.82
79463;BME280;68931;47.286;18.756;2024-01-30T02:21:06;102994.19;;;-4.30;90.60
79463;BME280;68931;47.286;18.756;2024-01-30T02:21:38;103005.63;;;-4.22;89.67
79463;BME280;68931;47.286;18.756;2024-01-30T02:22:11;103005.63;;;-4.22;90.57
79463;BME280;68931;47.286;18.756;2024-01-30T02:22:43;103008.25;;;-4.21;90.33
79463;BME280;68931;47.286;18.756;2024-01-30T02:23:19;102994.31;;;-4.27;90.45
79463;BME280;68931;47.286;18.756;2024-01-30T02:23:52;103004.78;;;-4.23;90.63
79463;BME280;68931;47.286;18.756;2024-01-30T02:24:25;102999.38;;;-4.29;90.90
79463;BME280;68931;47.286;18.756;2024-01-30T02:24:57;103003.75;;;-4.26;90.35
79463;BME280;68931;47.286;18.756;2024-01-30T02:25:33;103002.06;;;-4.26;90.61
79463;BME280;68931;47.286;18.756;2024-01-30T02:26:05;103009.78;;;-4.26;90.45
79463;BME280;68931;47.286;18.756;2024-01-30T02:26:37;103002.97;;;-4.25;90.88
79463;BME280;68931;47.286;18.756;2024-01-30T02:27:11;103013.31;;;-4.22;90.62
79463;BME280;68931;47.286;18.756;2024-01-30T02:27:43;102988.94;;;-4.33;90.60
79463;BME280;68931;47.286;18.756;2024-01-30T02:28:15;102994.13;;;-4.32;90.62
79463;BME280;68931;47.286;18.756;2024-01-30T02:28:47;103012.41;;;-4.24;91.16
79463;BME280;68931;47.286;18.756;2024-01-30T02:29:19;103012.41;;;-4.24;90.91
79463;BME280;68931;47.286;18.756;2024-01-30T02:29:52;103003.63;;;-4.29;91.13
79463;BME280;68931;47.286;18.756;2024-01-30T02:30:24;102997.44;;;-4.34;91.50
79463;BME280;68931;47.286;18.756;2024-01-30T02:30:55;103006.97;;;-4.30;91.56
79463;BME280;68931;47.286;18.756;2024-01-30T02:31:27;103009.69;;;-4.27;92.27
79463;BME280;68931;47.286;18.756;2024-01-30T02:31:59;103007.81;;;-4.31;92.17
79463;BME280;68931;47.286;18.756;2024-01-30T02:32:31;103009.56;;;-4.30;92.22
79463;BME280;68931;47.286;18.756;2024-01-30T02:33:04;103013.06;;;-4.28;91.84
79463;BME280;68931;47.286;18.756;2024-01-30T02:33:39;103002.56;;;-4.34;92.14
79463;BME280;68931;47.286;18.756;2024-01-30T02:34:11;102997.44;;;-4.34;92.39
79463;BME280;68931;47.286;18.756;2024-01-30T02:34:43;102989.41;;;-4.42;92.85
79463;BME280;68931;47.286;18.756;2024-01-30T02:35:15;103000.00;;;-4.34;92.84
79463;BME280;68931;47.286;18.756;2024-01-30T02:35:47;103009.28;;;-4.36;92.25
79463;BME280;68931;47.286;18.756;2024-01-30T02:36:19;103006.59;;;-4.39;92.65
79463;BME280;68931;47.286;18.756;2024-01-30T02:36:51;102998.09;;;-4.38;92.97
79463;BME280;68931;47.286;18.756;2024-01-30T02:37:23;102994.63;;;-4.40;92.54
79463;BME280;68931;47.286;18.756;2024-01-30T02:37:55;103007.75;;;-4.33;93.05
79463;BME280;68931;47.286;18.756;2024-01-30T02:38:28;102991.09;;;-4.42;93.28
79463;BME280;68931;47.286;18.756;2024-01-30T02:39:03;103000.72;;;-4.37;92.57
79463;BME280;68931;47.286;18.756;2024-01-30T02:39:35;103006.97;;;-4.30;92.89
79463;BME280;68931;47.286;18.756;2024-01-30T02:40:07;102988.53;;;-4.42;92.76
79463;BME280;68931;47.286;18.756;2024-01-30T02:40:39;102984.28;;;-4.42;92.82
79463;BME280;68931;47.286;18.756;2024-01-30T02:41:11;103015.63;;;-4.28;92.91
79463;BME280;68931;47.286;18.756;2024-01-30T02:41:43;103000.94;;;-4.32;93.03
79463;BME280;68931;47.286;18.756;2024-01-30T02:42:15;103019.00;;;-4.29;92.56
79463;BME280;68931;47.286;18.756;2024-01-30T02:42:47;102970.22;;;-4.51;93.02
79463;BME280;68931;47.286;18.756;2024-01-30T02:43:19;102990.41;;;-4.38;93.12
79463;BME280;68931;47.286;18.756;2024-01-30T02:43:51;103005.25;;;-4.31;92.93
79463;BME280;68931;47.286;18.756;2024-01-30T02:44:25;102997.19;;;-4.40;92.71
79463;BME280;68931;47.286;18.756;2024-01-30T02:44:57;103011.94;;;-4.35;92.66
79463;BME280;68931;47.286;18.756;2024-01-30T02:45:29;103010.91;;;-4.38;92.82
79463;BME280;68931;47.286;18.756;2024-01-30T02:46:04;102994.88;;;-4.53;92.46
79463;BME280;68931;47.286;18.756;2024-01-30T02:46:37;103012.59;;;-4.39;91.88
79463;BME280;68931;47.286;18.756;2024-01-30T02:47:09;103014.41;;;-4.36;92.01
79463;BME280;68931;47.286;18.756;2024-01-30T02:47:41;103001.28;;;-4.44;92.62
79463;BME280;68931;47.286;18.756;2024-01-30T02:48:13;103012.59;;;-4.39;92.58